Главная страница
METAR-TAF:

METAR-TAF

Аэропорты :

Penn Yan Airport

Penn Yan, Нью-Йорк, США

широта: 42-38-35N, долгота: 077-02-58W, высота над уровнем моря: 275 м

Текущие метеонаблюдения

Эта сводка был подготовлена 39 минут назад, в 17:53 UTC
Ветер 12 Узел от южный
Температура -4°C
Влажность 74%
Давление 1016 hPa
Видимость: 11.3 км
Рассеянная облачность на высоте 3400 фута
Сплошная облачность на высоте 5500 фута
небольшой снег

METAR: KPEO 181753Z AUTO 18012KT 7SM -SN BKN034 OVC055 M04/M08 A2999 RMK AO2 PRESFR SLP172 P0002 60002 T10441083 11044 21094 58079

Время: 13:32 (18:32 UTC)


TAF: отсутствует

Метеонаблюдения и прогнозы для более 4000 аэропортов (сводки METAR и TAF).

Имеющиеся станции представлены на карте желтыми и красными точками.

Чтобы увидеть название станции, наведите на нее мышь.

Затем щелкните, чтобы увидеть метеонаблюдения и метеопрогнозы.

Управление картой: чтобы увеличить масштаб, щелкните зеленые кнопки с черным крестиком; чтобы уменьшить масштаб, щелкните зеленую кнопку с тире; для просмотра соседних карт щелкайте зеленые стрелки.


METAR-TAF: